Time;durP1;ratioP1;P1;durP2;ratioP2;P2;SDS_P1;SDS_P2;PMS_P1;PMS_P2;Temp;Humidity;BMP_temperature;BMP_pressure;BME280_temperature;BME280_humidity;BME280_pressure;Samples;Min_cycle;Max_cycle;Signal;HPM_P1;HPM_P2
2021/01/25 00:02:21;;;;;;;10.60;5.35;;;;;;;-1.76;53.94;99884.06;5074690;28;20081;-71
2021/01/25 00:04:47;;;;;;;10.48;6.13;;;;;;;-1.89;54.86;99891.84;5071228;28;20032;-72
2021/01/25 00:07:12;;;;;;;7.68;5.43;;;;;;;-1.80;54.14;99890.91;5074565;28;20024;-71
2021/01/25 00:09:38;;;;;;;8.85;5.30;;;;;;;-1.74;53.68;99887.50;5075183;28;20028;-71
2021/01/25 00:12:04;;;;;;;7.93;4.78;;;;;;;-1.73;53.67;99889.16;5077632;28;20477;-71
2021/01/25 00:14:29;;;;;;;7.95;5.18;;;;;;;-1.76;53.82;99897.72;5070820;28;20051;-71
2021/01/25 00:16:54;;;;;;;17.20;6.47;;;;;;;-1.81;54.47;99896.91;5069617;28;20029;-71
2021/01/25 00:19:20;;;;;;;8.77;5.47;;;;;;;-1.75;53.75;99896.88;5073929;28;20119;-71
2021/01/25 00:21:45;;;;;;;9.10;5.20;;;;;;;-1.75;53.75;99893.47;5070913;28;20029;-71
2021/01/25 00:24:12;;;;;;;12.55;6.60;;;;;;;-1.71;53.43;99895.16;5071210;28;20025;-71
2021/01/25 00:26:38;;;;;;;8.05;4.93;;;;;;;-1.74;53.12;99893.44;5086708;28;20062;-71
2021/01/25 00:29:04;;;;;;;8.60;5.00;;;;;;;-1.78;53.49;99893.47;5075190;28;20475;-72
2021/01/25 00:31:30;;;;;;;8.38;4.90;;;;;;;-1.76;53.33;99895.16;5069555;28;20033;-71
2021/01/25 00:33:55;;;;;;;12.02;5.65;;;;;;;-1.85;53.35;99896.06;5054567;28;20059;-71
2021/01/25 00:36:21;;;;;;;12.90;4.90;;;;;;;-1.79;53.49;99905.44;5071706;28;20466;-71
2021/01/25 00:38:46;;;;;;;8.43;5.85;;;;;;;-1.80;53.42;99901.16;5070871;28;20058;-71
2021/01/25 00:41:13;;;;;;;8.13;5.70;;;;;;;-1.83;53.20;99906.31;5075397;28;20700;-71
2021/01/25 00:43:38;;;;;;;7.50;5.40;;;;;;;-1.81;53.32;99904.59;5069525;28;20033;-71
2021/01/25 00:46:03;;;;;;;5.38;4.70;;;;;;;-1.83;53.05;99901.19;5072199;28;20571;-71
2021/01/25 00:48:29;;;;;;;8.30;5.07;;;;;;;-1.81;53.87;99908.00;5075350;28;20069;-71
2021/01/25 00:50:55;;;;;;;7.82;5.57;;;;;;;-1.83;53.51;99904.59;5074123;28;20038;-71
2021/01/25 00:53:20;;;;;;;7.55;5.38;;;;;;;-1.91;53.24;99908.91;5074819;28;20028;-72
2021/01/25 00:55:46;;;;;;;10.30;4.47;;;;;;;-1.96;53.48;99908.06;5069641;28;20039;-71
2021/01/25 00:58:12;;;;;;;7.18;4.75;;;;;;;-1.97;53.22;99911.50;5070302;28;20520;-71
2021/01/25 01:00:37;;;;;;;14.75;5.75;;;;;;;-1.92;53.01;99909.75;5070458;28;20481;-71
2021/01/25 01:03:03;;;;;;;10.75;4.85;;;;;;;-2.02;53.56;99913.22;5070586;28;20042;-71
2021/01/25 01:05:29;;;;;;;12.43;6.80;;;;;;;-2.25;54.65;99918.41;5086134;28;20418;-71
2021/01/25 01:07:54;;;;;;;11.10;6.15;;;;;;;-2.04;54.17;99915.78;5073085;28;20020;-71
2021/01/25 01:10:20;;;;;;;10.52;5.32;;;;;;;-1.91;53.81;99916.59;5072766;28;20473;-71
2021/01/25 01:12:45;;;;;;;12.70;6.80;;;;;;;-1.82;54.07;99911.44;5076869;28;20058;-71
2021/01/25 01:15:13;;;;;;;15.85;5.60;;;;;;;-1.87;54.04;99917.41;5074271;28;20028;-71
2021/01/25 01:17:40;;;;;;;14.00;6.28;;;;;;;-1.92;53.82;99920.00;5045650;28;20032;-71
2021/01/25 01:20:06;;;;;;;8.88;5.05;;;;;;;-1.99;53.68;99915.78;5072884;28;20029;-71
2021/01/25 01:22:31;;;;;;;8.82;5.63;;;;;;;-2.06;53.92;99922.63;5076015;28;20032;-71
2021/01/25 01:24:57;;;;;;;8.07;5.82;;;;;;;-2.03;53.64;99922.59;5067110;28;20073;-71
2021/01/25 01:27:23;;;;;;;7.03;4.72;;;;;;;-2.04;53.37;99920.06;5076888;28;20020;-71
2021/01/25 01:29:49;;;;;;;9.98;6.05;;;;;;;-2.09;53.59;99920.09;5072686;28;20130;-71
2021/01/25 01:32:14;;;;;;;9.40;5.65;;;;;;;-2.26;54.65;99925.22;5070480;28;20098;-71
2021/01/25 01:34:39;;;;;;;7.00;4.55;;;;;;;-2.08;53.94;99933.72;5069151;28;20031;-71
2021/01/25 01:37:05;;;;;;;9.45;5.32;;;;;;;-2.03;53.69;99932.00;5090589;28;20256;-71
2021/01/25 01:39:30;;;;;;;7.60;4.85;;;;;;;-2.13;54.31;99926.06;5089494;28;20151;-71
2021/01/25 01:41:56;;;;;;;8.70;5.70;;;;;;;-2.08;54.12;99933.72;5070115;28;20048;-71
2021/01/25 01:44:21;;;;;;;7.35;5.05;;;;;;;-1.98;53.75;99935.38;5073744;28;20028;-71
2021/01/25 01:46:47;;;;;;;7.10;5.00;;;;;;;-1.91;53.42;99937.09;5068641;28;20025;-71
2021/01/25 01:49:13;;;;;;;8.98;5.03;;;;;;;-2.02;53.72;99938.84;5070313;28;20093;-71
2021/01/25 01:51:39;;;;;;;12.93;5.15;;;;;;;-2.09;53.76;99930.31;5069652;28;20024;-71
2021/01/25 01:54:06;;;;;;;7.55;4.65;;;;;;;-2.07;53.30;99935.41;5072376;28;20637;-71
2021/01/25 01:56:36;;;;;;;9.93;5.03;;;;;;;-2.13;53.11;99938.03;5067092;28;20439;-71
2021/01/25 01:59:02;;;;;;;10.60;5.25;;;;;;;-2.14;53.46;99933.75;5072063;28;20052;-71
2021/01/25 02:01:27;;;;;;;6.03;4.22;;;;;;;-2.15;53.39;99942.28;5068232;28;20645;-71
2021/01/25 02:03:54;;;;;;;9.50;4.28;;;;;;;-2.11;53.17;99933.72;5069841;28;20036;-71
2021/01/25 02:06:21;;;;;;;9.35;4.97;;;;;;;-2.10;53.20;99940.56;5072026;28;20025;-71
2021/01/25 02:08:47;;;;;;;7.57;4.45;;;;;;;-2.10;53.20;99936.28;5088067;28;20529;-72
2021/01/25 02:11:13;;;;;;;7.22;4.13;;;;;;;-2.12;53.20;99943.13;5069156;28;20020;-71
2021/01/25 02:13:39;;;;;;;8.63;4.60;;;;;;;-2.15;53.29;99942.28;5069652;28;20036;-71
2021/01/25 02:16:05;;;;;;;6.47;4.18;;;;;;;-2.13;53.27;99938.88;5070965;28;20025;-71
2021/01/25 02:18:35;;;;;;;9.90;4.80;;;;;;;-2.16;53.01;99941.41;5069887;28;20502;-71
2021/01/25 02:21:03;;;;;;;7.72;4.57;;;;;;;-2.19;53.10;99948.25;5066903;28;20039;-71
2021/01/25 02:24:06;;;;;;;10.30;4.65;;;;;;;-2.27;53.19;99945.72;5066194;28;20029;-71
2021/01/25 02:27:07;;;;;;;10.40;5.15;;;;;;;-2.40;54.18;99951.69;5085662;28;20032;-71
2021/01/25 02:29:33;;;;;;;7.30;4.50;;;;;;;-2.33;53.66;99949.16;5070037;28;20067;-71
2021/01/25 02:32:00;;;;;;;10.65;5.10;;;;;;;-2.31;53.50;99952.56;5068152;28;20088;-71
2021/01/25 02:34:29;;;;;;;13.80;5.40;;;;;;;-2.40;54.11;99956.81;5073887;28;20459;-71
2021/01/25 02:36:57;;;;;;;8.45;5.32;;;;;;;-2.54;55.19;99959.41;5068927;28;20036;-71
2021/01/25 02:39:23;;;;;;;8.27;5.70;;;;;;;-2.45;55.23;99962.81;5068975;28;20027;-71
2021/01/25 02:41:48;;;;;;;12.38;5.57;;;;;;;-2.37;54.95;99957.69;5068981;28;20473;-72
2021/01/25 02:44:14;;;;;;;9.88;4.75;;;;;;;-2.26;54.18;99960.22;5071463;28;20086;-71
2021/01/25 02:46:40;;;;;;;7.90;5.25;;;;;;;-2.23;54.16;99955.09;5088373;28;20024;-71
2021/01/25 02:49:06;;;;;;;8.43;5.32;;;;;;;-2.31;54.08;99957.69;5074679;28;20067;-71
2021/01/25 02:51:31;;;;;;;9.25;4.43;;;;;;;-2.25;53.97;99961.91;5071707;28;20032;-71
2021/01/25 02:53:57;;;;;;;7.78;4.07;;;;;;;-2.23;53.89;99973.84;5071441;28;20485;-71
2021/01/25 02:56:22;;;;;;;9.32;4.72;;;;;;;-2.34;54.85;99973.00;5071436;28;20024;-71
2021/01/25 02:58:50;;;;;;;11.10;5.65;;;;;;;-2.19;54.72;99971.31;5088081;28;20055;-71
2021/01/25 03:01:15;;;;;;;9.15;5.22;;;;;;;-2.25;55.41;99967.88;5082139;28;20032;-71
2021/01/25 03:03:41;;;;;;;7.50;5.10;;;;;;;-2.37;55.79;99967.91;5091742;28;20062;-71
2021/01/25 03:06:07;;;;;;;9.25;5.30;;;;;;;-2.03;54.99;99968.69;5076508;28;20033;-71
2021/01/25 03:08:33;;;;;;;8.77;4.82;;;;;;;-1.92;54.33;99957.56;5074457;28;20053;-71
2021/01/25 03:10:59;;;;;;;5.85;3.47;;;;;;;-1.91;54.14;99965.25;5059387;28;20649;-71
2021/01/25 03:13:26;;;;;;;8.57;4.50;;;;;;;-1.95;53.82;99967.84;5072905;28;20032;-71
2021/01/25 03:15:54;;;;;;;6.75;4.07;;;;;;;-1.98;54.04;99968.69;5071350;28;20028;-71
2021/01/25 03:18:21;;;;;;;10.05;4.72;;;;;;;-2.05;53.80;99969.56;5089883;28;20265;-71
2021/01/25 03:20:50;;;;;;;6.93;4.20;;;;;;;-2.06;53.47;99978.94;5075355;28;20035;-71
2021/01/25 03:23:16;;;;;;;9.68;4.47;;;;;;;-2.06;53.42;99973.00;5075718;28;20040;-71
2021/01/25 03:25:42;;;;;;;9.40;4.50;;;;;;;-2.10;53.61;99976.41;5074325;28;20084;-71
2021/01/25 03:28:08;;;;;;;8.63;4.05;;;;;;;-2.05;53.49;99978.09;5076432;28;20071;-71
2021/01/25 03:30:33;;;;;;;10.05;4.50;;;;;;;-2.07;53.99;99977.25;5071113;28;20063;-71
2021/01/25 03:32:59;;;;;;;14.00;4.35;;;;;;;-1.96;54.06;99974.66;5090051;28;20028;-71
2021/01/25 03:35:24;;;;;;;6.70;3.85;;;;;;;-1.93;54.17;99978.91;5075975;28;20503;-72
2021/01/25 03:37:50;;;;;;;10.23;4.63;;;;;;;-1.96;53.98;99984.03;5076999;28;20060;-72
2021/01/25 03:40:15;;;;;;;10.73;5.10;;;;;;;-1.95;53.92;99981.50;5075371;28;20033;-72
2021/01/25 03:42:41;;;;;;;7.63;3.42;;;;;;;-1.99;53.89;99990.03;5072355;28;20036;-71
2021/01/25 03:45:07;;;;;;;6.93;4.70;;;;;;;-1.98;53.87;99980.63;5088912;28;20032;-73
2021/01/25 03:47:32;;;;;;;8.18;4.45;;;;;;;-2.10;53.60;99984.09;5071441;28;20029;-72
2021/01/25 03:49:58;;;;;;;4.80;3.38;;;;;;;-2.09;53.42;99985.78;5077483;28;20036;-73
2021/01/25 03:52:25;;;;;;;8.27;4.30;;;;;;;-2.14;53.38;99984.94;5075566;28;20105;-73
2021/01/25 03:54:51;;;;;;;8.52;4.00;;;;;;;-2.26;53.48;99990.94;5070459;28;20039;-73
2021/01/25 03:57:17;;;;;;;6.80;3.88;;;;;;;-2.26;53.48;99993.50;5074895;28;20043;-72
2021/01/25 03:59:42;;;;;;;9.10;3.67;;;;;;;-2.25;53.59;99993.47;5069732;28;20623;-73
2021/01/25 04:02:08;;;;;;;5.78;3.60;;;;;;;-2.36;53.63;99995.19;5071849;28;20029;-71
2021/01/25 04:04:33;;;;;;;5.53;3.05;;;;;;;-2.32;53.64;99986.66;5072443;28;20036;-72
2021/01/25 04:06:59;;;;;;;5.53;3.38;;;;;;;-2.39;53.57;99989.25;5071815;28;20048;-72
2021/01/25 04:09:24;;;;;;;5.70;3.13;;;;;;;-2.35;53.41;99996.06;5078294;28;20123;-72
2021/01/25 04:11:50;;;;;;;6.93;3.97;;;;;;;-2.37;53.61;99995.22;5069831;28;20478;-72
2021/01/25 04:14:15;;;;;;;6.20;3.42;;;;;;;-2.28;53.38;99993.50;5076181;28;20458;-73
2021/01/25 04:16:41;;;;;;;7.45;3.80;;;;;;;-2.34;53.35;99993.50;5072929;28;20059;-72
2021/01/25 04:19:06;;;;;;;7.45;3.88;;;;;;;-2.40;53.53;99992.66;5075500;28;20516;-72
2021/01/25 04:21:32;;;;;;;6.10;3.33;;;;;;;-2.46;53.53;99993.53;5073677;28;20043;-73
2021/01/25 04:23:59;;;;;;;5.20;3.13;;;;;;;-2.47;53.29;99996.91;5069636;28;20025;-74
2021/01/25 04:26:25;;;;;;;7.90;3.67;;;;;;;-2.54;53.62;99995.22;5087600;28;20035;-73
2021/01/25 04:28:50;;;;;;;5.68;3.42;;;;;;;-2.54;53.50;99998.63;5071228;28;20033;-73
2021/01/25 04:31:16;;;;;;;8.15;3.90;;;;;;;-2.52;53.53;99999.47;5071664;28;20037;-72
2021/01/25 04:33:42;;;;;;;7.03;3.70;;;;;;;-2.59;53.34;100000.34;5073530;28;20067;-72
2021/01/25 04:36:08;;;;;;;8.00;4.38;;;;;;;-2.75;53.32;100007.16;5075369;28;20036;-71
2021/01/25 04:38:34;;;;;;;5.82;3.08;;;;;;;-2.76;53.47;100000.34;5072165;28;20032;-72
2021/01/25 04:41:00;;;;;;;5.53;3.00;;;;;;;-2.76;53.31;100010.56;5069393;28;20036;-71
2021/01/25 04:43:27;;;;;;;7.55;4.10;;;;;;;-3.13;55.46;100010.50;5074945;28;20212;-72
2021/01/25 04:45:57;;;;;;;9.95;4.75;;;;;;;-2.77;54.53;100011.41;5068708;28;20067;-72
2021/01/25 04:48:25;;;;;;;10.68;5.07;;;;;;;-2.78;54.64;100014.84;5054037;28;20028;-73
2021/01/25 04:50:54;;;;;;;9.95;5.72;;;;;;;-3.14;56.45;100011.34;5068401;28;20068;-74
2021/01/25 04:53:20;;;;;;;9.77;5.35;;;;;;;-2.90;55.43;100009.69;5077286;28;20123;-72
2021/01/25 04:55:46;;;;;;;7.55;4.60;;;;;;;-2.80;55.21;100008.84;5068529;28;20119;-72
2021/01/25 04:58:12;;;;;;;9.20;5.05;;;;;;;-2.95;55.80;100013.94;5069154;28;20028;-72
2021/01/25 05:00:37;;;;;;;8.80;5.38;;;;;;;-2.77;55.11;100019.09;5055694;28;20957;-73
2021/01/25 05:03:03;;;;;;;10.50;5.63;;;;;;;-2.78;54.87;100013.97;5071076;28;20098;-73
2021/01/25 05:05:28;;;;;;;12.43;4.35;;;;;;;-2.69;54.77;100012.28;5073425;28;20050;-71
2021/01/25 05:07:54;;;;;;;8.52;4.90;;;;;;;-2.65;54.75;100019.13;5087360;28;20470;-71
2021/01/25 05:10:20;;;;;;;10.52;5.53;;;;;;;-2.56;54.41;100019.94;5069301;28;20024;-72
2021/01/25 05:12:51;;;;;;;8.55;5.07;;;;;;;-2.68;54.34;100013.97;5069797;28;20032;-73
2021/01/25 05:15:36;;;;;;;11.73;5.00;;;;;;;-2.65;54.28;100019.13;5072508;28;20028;-71
2021/01/25 05:18:12;;;;;;;8.75;4.55;;;;;;;-2.64;53.86;100025.91;5072458;28;20045;-72
2021/01/25 05:20:38;;;;;;;12.15;5.55;;;;;;;-2.87;54.87;100025.91;5063463;28;20083;-71
2021/01/25 05:23:14;;;;;;;10.88;4.30;;;;;;;-2.98;55.07;100024.16;5071864;28;20701;-71
2021/01/25 05:25:40;;;;;;;9.05;5.90;;;;;;;-3.03;55.50;100030.97;5071701;28;20029;-71
2021/01/25 05:28:17;;;;;;;10.38;5.38;;;;;;;-2.88;54.68;100025.88;5089576;28;20034;-72
2021/01/25 05:30:42;;;;;;;7.80;5.22;;;;;;;-2.78;54.19;100021.63;5070008;28;20067;-72
2021/01/25 05:33:08;;;;;;;9.55;6.00;;;;;;;-2.69;53.98;100027.63;5086003;28;20041;-72
2021/01/25 05:35:35;;;;;;;8.98;6.10;;;;;;;-2.67;54.09;100020.81;5054271;28;20093;-70
2021/01/25 05:38:05;;;;;;;11.77;6.35;;;;;;;-2.64;53.71;100025.06;5074125;28;20031;-72
2021/01/25 05:40:33;;;;;;;10.15;5.47;;;;;;;-2.68;53.77;100029.31;5075282;28;20028;-71
2021/01/25 05:42:59;;;;;;;10.23;5.70;;;;;;;-2.72;53.76;100026.75;5074788;28;20028;-72
2021/01/25 05:45:28;;;;;;;8.35;5.32;;;;;;;-2.82;54.16;100022.50;5076741;28;20103;-72
2021/01/25 05:47:57;;;;;;;12.35;5.93;;;;;;;-2.89;54.92;100031.88;5091031;28;20036;-73
2021/01/25 05:50:41;;;;;;;12.38;6.15;;;;;;;-2.77;54.47;100033.59;5080291;28;20127;-73
2021/01/25 05:53:09;;;;;;;10.80;5.18;;;;;;;-2.79;53.87;100031.00;5100866;28;20035;-73
2021/01/25 05:55:35;;;;;;;9.25;5.63;;;;;;;-2.84;53.87;100033.56;5098303;28;20052;-73
2021/01/25 05:58:01;;;;;;;9.10;6.28;;;;;;;-2.80;53.73;100033.56;5082744;28;20109;-73
2021/01/25 06:00:28;;;;;;;10.85;5.88;;;;;;;-2.81;53.70;100037.81;5088978;28;20043;-73
2021/01/25 06:02:55;;;;;;;9.65;5.10;;;;;;;-2.83;53.54;100039.53;5081907;28;20062;-72
2021/01/25 06:05:40;;;;;;;8.93;5.57;;;;;;;-2.78;53.75;100040.41;5089399;28;20055;-71
2021/01/25 06:08:20;;;;;;;11.40;5.82;;;;;;;-2.76;53.53;100041.28;5068409;28;20036;-71
2021/01/25 06:11:04;;;;;;;12.98;7.18;;;;;;;-2.72;53.55;100034.44;5066458;28;20036;-70
2021/01/25 06:13:56;;;;;;;16.65;8.07;;;;;;;-2.91;54.59;100043.78;5073235;28;20060;-71
2021/01/25 06:16:25;;;;;;;12.20;8.75;;;;;;;-2.72;53.70;100044.66;5056965;28;20036;-71
2021/01/25 06:19:05;;;;;;;22.05;10.18;;;;;;;-2.90;53.96;100045.50;5071986;28;20036;-71
2021/01/25 06:21:39;;;;;;;15.73;8.10;;;;;;;-2.82;53.79;100051.47;5067306;28;20089;-70
2021/01/25 06:24:07;;;;;;;26.48;11.77;;;;;;;-2.88;53.95;100054.03;5093932;28;20036;-70
2021/01/25 06:26:33;;;;;;;25.17;10.38;;;;;;;-2.91;54.37;100056.59;5089009;28;20035;-70
2021/01/25 06:29:04;;;;;;;23.75;9.55;;;;;;;-2.88;54.14;100061.69;5092565;28;20154;-71
2021/01/25 06:31:34;;;;;;;13.90;7.57;;;;;;;-2.82;53.78;100066.81;5087566;28;20044;-72
2021/01/25 06:34:05;;;;;;;16.77;7.07;;;;;;;-2.86;53.99;100065.09;5091380;28;20056;-71
2021/01/25 06:36:35;;;;;;;8.85;4.45;;;;;;;-2.85;53.78;100071.91;5081159;28;20170;-70
2021/01/25 06:39:06;;;;;;;10.68;5.63;;;;;;;-2.86;53.76;100077.91;5076644;28;20036;-70
2021/01/25 06:41:42;;;;;;;11.53;7.13;;;;;;;-2.83;53.69;100077.88;5076319;28;20028;-71
2021/01/25 06:44:10;;;;;;;12.82;5.82;;;;;;;-2.89;53.65;100085.56;5076760;28;20082;-71
2021/01/25 06:46:38;;;;;;;14.13;7.25;;;;;;;-2.81;53.62;100088.97;5074641;28;20029;-70
2021/01/25 06:49:08;;;;;;;16.95;7.40;;;;;;;-2.85;53.46;100087.25;5072671;28;20036;-71
2021/01/25 06:51:42;;;;;;;13.13;6.68;;;;;;;-2.90;53.48;100089.81;5074632;28;20029;-70
2021/01/25 06:54:11;;;;;;;11.55;6.03;;;;;;;-2.85;53.55;100085.59;5073304;28;20032;-70
2021/01/25 06:56:51;;;;;;;12.57;6.10;;;;;;;-2.95;53.72;100091.50;5071725;28;20043;-72
2021/01/25 06:59:23;;;;;;;9.68;5.78;;;;;;;-3.02;54.10;100099.16;5076417;28;20025;-71
2021/01/25 07:01:55;;;;;;;14.52;5.38;;;;;;;-3.00;54.57;100105.13;5056707;28;20032;-71
2021/01/25 07:04:24;;;;;;;;;;;;;;;-3.10;55.02;100101.69;5057052;28;20370;-71
2021/01/25 07:06:54;;;;;;;8.85;5.47;;;;;;;-2.91;54.23;100107.72;5088018;28;19916;-70
2021/01/25 07:09:27;;;;;;;12.65;6.43;;;;;;;-2.85;53.72;100112.84;5074242;28;20182;-71
2021/01/25 07:12:00;;;;;;;12.18;6.35;;;;;;;-2.84;53.71;100117.97;5072606;28;20401;-72
2021/01/25 07:14:28;;;;;;;15.18;6.88;;;;;;;-2.90;53.84;100120.50;5074841;28;20101;-71
2021/01/25 07:16:55;;;;;;;15.25;6.85;;;;;;;-2.93;53.79;100119.66;5080361;28;20043;-71
2021/01/25 07:19:22;;;;;;;9.10;4.90;;;;;;;-2.92;53.55;100122.19;5074269;28;20037;-71
2021/01/25 07:21:49;;;;;;;12.00;6.00;;;;;;;-2.93;53.37;100128.16;5071135;28;20036;-71
2021/01/25 07:24:19;;;;;;;11.32;6.78;;;;;;;-2.96;53.34;100135.84;5077732;28;20036;-71
2021/01/25 07:26:50;;;;;;;9.02;6.00;;;;;;;-2.90;53.05;100132.44;5077303;28;20090;-71
2021/01/25 07:29:15;;;;;;;13.27;7.28;;;;;;;-2.87;53.57;100129.88;5087755;28;20025;-72
2021/01/25 07:31:41;;;;;;;14.23;7.22;;;;;;;-2.89;53.63;100135.00;5060163;28;20206;-71
2021/01/25 07:34:10;;;;;;;16.15;7.78;;;;;;;-2.92;53.77;100137.53;5075260;28;20032;-73
2021/01/25 07:36:36;;;;;;;27.05;11.65;;;;;;;-2.74;53.60;100149.53;5075323;28;20036;-71
2021/01/25 07:39:04;;;;;;;10.38;6.93;;;;;;;-2.80;54.16;100141.88;5077921;28;20048;-71
2021/01/25 07:41:30;;;;;;;25.08;10.50;;;;;;;-2.78;53.94;100150.41;5072408;28;20227;-71
2021/01/25 07:43:56;;;;;;;15.52;9.07;;;;;;;-2.79;53.85;100151.22;5090233;28;20489;-71
2021/01/25 07:46:22;;;;;;;13.13;7.95;;;;;;;-2.75;53.92;100159.78;5075833;28;20020;-71
2021/01/25 07:48:50;;;;;;;18.08;8.05;;;;;;;-2.69;54.08;100160.66;5089829;28;20025;-71
2021/01/25 07:51:23;;;;;;;11.10;6.40;;;;;;;-2.44;54.42;100171.81;5072287;28;20029;-71
2021/01/25 07:53:49;;;;;;;11.15;7.07;;;;;;;-2.22;53.84;100169.28;5069676;28;20040;-70
2021/01/25 07:56:19;;;;;;;15.82;9.20;;;;;;;-2.26;53.45;100170.97;5072331;28;20028;-71
2021/01/25 07:58:46;;;;;;;25.90;11.73;;;;;;;-2.13;53.68;100171.84;5073556;28;20110;-72
2021/01/25 08:01:20;;;;;;;27.65;10.45;;;;;;;-1.80;53.73;100165.91;5073595;28;20370;-71
2021/01/25 08:03:50;;;;;;;19.33;11.13;;;;;;;-1.34;52.86;100167.53;5074729;28;20032;-72
2021/01/25 08:06:16;;;;;;;20.77;10.52;;;;;;;-1.27;52.07;100178.63;5075270;28;20029;-71
2021/01/25 08:08:47;;;;;;;19.20;8.40;;;;;;;-1.40;52.79;100185.50;5070969;28;20028;-71
2021/01/25 08:11:13;;;;;;;14.48;8.43;;;;;;;-1.68;52.24;100187.25;5070732;28;20087;-71
2021/01/25 08:14:05;;;;;;;16.60;8.02;;;;;;;-1.82;52.59;100193.22;5069677;28;20092;-71
2021/01/25 08:16:36;;;;;;;16.65;8.60;;;;;;;-1.97;52.91;100193.22;5088561;28;20036;-71
2021/01/25 08:19:12;;;;;;;19.50;8.88;;;;;;;-1.93;53.48;100196.59;5085646;28;20188;-71
2021/01/25 08:21:48;;;;;;;23.73;8.95;;;;;;;-1.61;53.07;100194.06;5071122;28;20024;-73
2021/01/25 08:24:14;;;;;;;21.95;9.35;;;;;;;-1.02;52.79;100192.28;5069412;28;20542;-71
2021/01/25 08:26:40;;;;;;;30.27;14.68;;;;;;;-0.32;51.86;100195.41;5068928;28;20425;-71
2021/01/25 08:29:13;;;;;;;15.73;8.95;;;;;;;0.03;50.05;100195.16;5088801;28;20035;-71
2021/01/25 08:31:42;;;;;;;20.83;10.93;;;;;;;1.22;49.29;100200.88;5073823;28;20036;-71
2021/01/25 08:34:19;;;;;;;19.20;12.55;;;;;;;2.46;47.96;100194.81;5070146;28;20035;-71
2021/01/25 08:37:15;;;;;;;25.58;12.13;;;;;;;3.65;43.83;100188.19;5086502;28;20048;-71
2021/01/25 08:39:43;;;;;;;25.27;10.27;;;;;;;4.52;41.39;100193.03;5071134;28;20052;-72
2021/01/25 08:42:22;;;;;;;19.23;10.10;;;;;;;5.19;37.91;100195.56;5068086;28;20048;-72
2021/01/25 08:44:52;;;;;;;26.42;12.27;;;;;;;5.50;38.75;100203.28;5069038;28;20506;-72
2021/01/25 08:47:28;;;;;;;24.25;10.73;;;;;;;5.18;37.58;100202.50;5084289;28;20115;-73
2021/01/25 08:49:54;;;;;;;21.73;7.72;;;;;;;3.85;38.26;100204.13;5067707;28;20044;-73
2021/01/25 08:52:30;;;;;;;16.08;7.72;;;;;;;2.75;41.84;100213.19;5086439;28;20550;-72
2021/01/25 08:55:10;;;;;;;25.52;11.15;;;;;;;1.91;42.71;100218.03;5083594;28;20029;-73
2021/01/25 08:57:38;;;;;;;16.45;8.90;;;;;;;1.47;45.06;100216.06;5060007;28;20036;-72
2021/01/25 09:00:15;;;;;;;16.60;8.80;;;;;;;0.81;46.22;100219.34;5066057;28;20502;-74
2021/01/25 09:02:41;;;;;;;18.98;8.50;;;;;;;0.99;47.85;100224.31;5063772;28;20040;-73
2021/01/25 09:05:09;;;;;;;17.60;8.60;;;;;;;1.94;46.59;100225.69;5062868;28;20532;-73
2021/01/25 09:07:48;;;;;;;;;;;;;;;2.68;43.82;100229.69;5068258;28;20047;-72
2021/01/25 09:10:16;;;;;;;19.40;8.57;;;;;;;3.78;42.60;100223.22;5052603;28;20362;-73
2021/01/25 09:12:48;;;;;;;15.27;7.65;;;;;;;4.35;41.52;100220.19;5066399;28;20033;-73
2021/01/25 09:15:19;;;;;;;17.63;8.00;;;;;;;3.83;40.73;100221.41;5066842;28;20052;-73
2021/01/25 09:17:46;;;;;;;15.48;6.70;;;;;;;4.37;41.69;100227.91;5064825;28;20097;-73
2021/01/25 09:20:13;;;;;;;24.25;10.18;;;;;;;4.41;39.23;100225.22;5068248;28;20428;-73
2021/01/25 09:22:39;;;;;;;19.55;10.10;;;;;;;3.69;41.50;100231.19;5072206;28;20076;-73
2021/01/25 09:25:06;;;;;;;18.83;9.88;;;;;;;3.85;43.57;100227.41;5081791;28;20032;-73
2021/01/25 09:27:32;;;;;;;26.52;9.95;;;;;;;3.38;42.77;100234.41;5065488;28;20028;-73
2021/01/25 09:29:57;;;;;;;18.10;8.30;;;;;;;3.55;42.02;100229.75;5085198;28;20055;-73
2021/01/25 09:32:23;;;;;;;17.33;8.70;;;;;;;3.79;42.59;100230.97;5064863;28;20042;-73
2021/01/25 09:34:48;;;;;;;18.75;8.13;;;;;;;4.24;41.67;100231.69;5066389;28;20664;-73
2021/01/25 09:37:14;;;;;;;18.13;7.82;;;;;;;4.28;41.18;100244.50;5068552;28;20397;-73
2021/01/25 09:39:39;;;;;;;13.27;6.45;;;;;;;4.22;39.68;100242.91;5054693;28;20040;-73
2021/01/25 09:42:07;;;;;;;21.67;9.60;;;;;;;4.02;42.14;100243.38;5055787;28;20024;-73
2021/01/25 09:44:34;;;;;;;19.38;9.93;;;;;;;3.84;42.14;100242.94;5070339;28;20058;-74
2021/01/25 09:47:00;;;;;;;15.13;7.15;;;;;;;3.33;43.11;100249.16;5066370;28;20032;-73
2021/01/25 09:49:25;;;;;;;16.25;8.48;;;;;;;4.15;42.14;100250.84;5049917;28;20115;-73
2021/01/25 09:51:51;;;;;;;15.35;7.93;;;;;;;4.71;40.75;100248.63;5048160;28;20032;-73
2021/01/25 09:54:17;;;;;;;13.68;7.15;;;;;;;2.83;44.08;100258.69;5089538;28;20029;-73
2021/01/25 09:56:43;;;;;;;13.02;7.15;;;;;;;3.58;42.91;100260.72;5064786;28;20039;-73
2021/01/25 09:59:09;;;;;;;13.18;7.80;;;;;;;2.57;44.58;100278.03;5064784;28;20035;-72
2021/01/25 10:01:35;;;;;;;11.73;7.65;;;;;;;2.53;45.58;100268.63;5084021;28;20036;-73
2021/01/25 10:04:00;;;;;;;15.43;7.47;;;;;;;2.86;47.07;100271.53;5067252;28;20111;-74
2021/01/25 10:06:28;;;;;;;13.52;7.90;;;;;;;3.51;43.68;100273.78;5065950;28;20108;-75
2021/01/25 10:08:57;;;;;;;14.65;7.40;;;;;;;3.92;44.80;100269.50;5067891;28;20028;-75
2021/01/25 10:11:26;;;;;;;10.10;6.05;;;;;;;4.06;43.89;100279.53;5071982;28;20025;-73
2021/01/25 10:13:52;;;;;;;11.85;6.45;;;;;;;3.64;44.54;100287.31;5051829;28;20067;-73
2021/01/25 10:16:19;;;;;;;12.20;6.38;;;;;;;4.06;43.41;100284.69;5068093;28;20553;-73
2021/01/25 10:18:45;;;;;;;14.50;6.63;;;;;;;4.44;42.54;100286.38;5071299;28;20051;-73
2021/01/25 10:21:11;;;;;;;11.85;7.32;;;;;;;4.46;42.12;100294.13;5082810;28;20027;-73
2021/01/25 10:23:36;;;;;;;12.45;6.70;;;;;;;4.59;43.07;100295.53;5066601;28;20698;-73
2021/01/25 10:26:02;;;;;;;12.73;6.93;;;;;;;4.52;43.41;100300.00;5083324;28;20405;-73
2021/01/25 10:28:27;;;;;;;17.33;6.85;;;;;;;3.94;43.21;100307.34;5052931;28;20040;-73
2021/01/25 10:30:53;;;;;;;11.13;6.50;;;;;;;3.42;44.14;100308.41;5070087;28;20119;-74
2021/01/25 10:33:19;;;;;;;15.48;7.28;;;;;;;3.63;46.20;100309.72;5065704;28;20087;-72
2021/01/25 10:35:44;;;;;;;16.75;7.35;;;;;;;3.88;44.49;100310.06;5064423;28;20032;-72
2021/01/25 10:38:10;;;;;;;13.07;7.32;;;;;;;2.65;46.69;100314.88;5068631;28;20450;-74
2021/01/25 10:40:36;;;;;;;17.30;8.13;;;;;;;2.35;47.22;100322.25;5067922;28;20085;-73
2021/01/25 10:43:02;;;;;;;13.27;6.85;;;;;;;3.02;46.98;100321.16;5069030;28;20032;-72
2021/01/25 10:45:27;;;;;;;15.02;6.85;;;;;;;3.76;43.85;100323.22;5064947;28;20029;-72
2021/01/25 10:47:53;;;;;;;11.25;6.20;;;;;;;4.08;44.18;100329.47;5067138;28;20137;-72
2021/01/25 10:50:19;;;;;;;10.52;5.72;;;;;;;4.18;43.52;100325.78;5046736;28;20024;-72
2021/01/25 10:52:44;;;;;;;17.02;7.15;;;;;;;4.53;42.39;100326.72;5069637;28;20060;-73
2021/01/25 10:55:11;;;;;;;15.88;7.20;;;;;;;4.81;42.41;100321.72;5069373;28;20069;-72
2021/01/25 10:57:37;;;;;;;20.58;7.78;;;;;;;4.68;43.11;100326.38;5065322;28;20366;-72
2021/01/25 11:00:09;;;;;;;13.45;7.13;;;;;;;4.47;43.50;100317.34;5050673;28;20042;-74
2021/01/25 11:02:35;;;;;;;17.13;9.07;;;;;;;4.19;43.92;100336.09;5069302;28;20042;-74
2021/01/25 11:05:03;;;;;;;14.05;8.05;;;;;;;5.16;43.52;100333.81;5070508;28;20025;-74
2021/01/25 11:07:30;;;;;;;14.38;8.27;;;;;;;5.58;42.09;100333.56;5051235;28;20036;-74
2021/01/25 11:09:55;;;;;;;15.80;7.30;;;;;;;4.39;42.81;100329.66;5071308;28;20033;-74
2021/01/25 11:12:21;;;;;;;11.57;6.82;;;;;;;4.86;42.82;100329.41;5068531;28;20044;-72
2021/01/25 11:14:46;;;;;;;11.23;6.65;;;;;;;4.78;43.23;100335.59;5072380;28;20628;-73
2021/01/25 11:17:13;;;;;;;15.18;7.18;;;;;;;5.36;41.34;100341.06;5070119;28;20036;-73
2021/01/25 11:19:39;;;;;;;12.93;7.40;;;;;;;5.24;42.54;100342.25;5089193;28;20075;-72
2021/01/25 11:22:04;;;;;;;10.60;6.40;;;;;;;5.78;41.10;100345.13;5071552;28;20512;-71
2021/01/25 11:24:30;;;;;;;13.77;6.13;;;;;;;4.67;43.78;100340.19;5069444;28;20025;-74
2021/01/25 11:26:57;;;;;;;12.38;6.07;;;;;;;5.06;43.52;100347.91;5067579;28;20009;-72
2021/01/25 11:29:25;;;;;;;11.38;5.93;;;;;;;4.71;43.71;100352.16;5069580;28;20032;-72
2021/01/25 11:31:50;;;;;;;9.98;6.07;;;;;;;4.50;44.31;100350.94;5054103;28;20032;-72